sensor_id;sensor_type;location;lat;lon;timestamp;P1;durP1;ratioP1;P2;durP2;ratioP2
57241;SDS011;43095;53.302;5.786;2023-02-15T00:02:03;272.08;;;54.97;;
57241;SDS011;43095;53.302;5.786;2023-02-15T00:04:32;119.70;;;42.05;;
57241;SDS011;43095;53.302;5.786;2023-02-15T00:07:15;222.00;;;43.67;;
57241;SDS011;43095;53.302;5.786;2023-02-15T00:09:44;96.18;;;41.33;;
57241;SDS011;43095;53.302;5.786;2023-02-15T00:12:12;128.95;;;40.25;;
57241;SDS011;43095;53.302;5.786;2023-02-15T00:14:40;214.18;;;50.05;;
57241;SDS011;43095;53.302;5.786;2023-02-15T00:17:08;227.70;;;53.25;;
57241;SDS011;43095;53.302;5.786;2023-02-15T00:19:36;74.82;;;41.88;;
57241;SDS011;43095;53.302;5.786;2023-02-15T00:22:04;117.72;;;47.65;;
57241;SDS011;43095;53.302;5.786;2023-02-15T00:24:35;130.88;;;42.15;;
57241;SDS011;43095;53.302;5.786;2023-02-15T00:27:03;102.05;;;41.58;;
57241;SDS011;43095;53.302;5.786;2023-02-15T00:29:30;73.78;;;37.25;;
57241;SDS011;43095;53.302;5.786;2023-02-15T00:31:58;157.52;;;47.53;;
57241;SDS011;43095;53.302;5.786;2023-02-15T00:34:26;56.88;;;37.50;;
57241;SDS011;43095;53.302;5.786;2023-02-15T00:36:55;56.83;;;36.75;;
57241;SDS011;43095;53.302;5.786;2023-02-15T00:39:23;53.55;;;36.35;;
57241;SDS011;43095;53.302;5.786;2023-02-15T00:41:51;55.88;;;36.30;;
57241;SDS011;43095;53.302;5.786;2023-02-15T00:44:19;54.28;;;36.45;;
57241;SDS011;43095;53.302;5.786;2023-02-15T00:46:46;54.95;;;37.72;;
57241;SDS011;43095;53.302;5.786;2023-02-15T00:49:14;80.38;;;38.60;;
57241;SDS011;43095;53.302;5.786;2023-02-15T00:51:42;58.08;;;37.33;;
57241;SDS011;43095;53.302;5.786;2023-02-15T00:54:11;86.40;;;36.95;;
57241;SDS011;43095;53.302;5.786;2023-02-15T00:56:39;89.00;;;39.47;;
57241;SDS011;43095;53.302;5.786;2023-02-15T00:59:08;78.70;;;39.45;;
57241;SDS011;43095;53.302;5.786;2023-02-15T01:01:35;242.82;;;50.78;;
57241;SDS011;43095;53.302;5.786;2023-02-15T01:04:03;435.05;;;69.10;;
57241;SDS011;43095;53.302;5.786;2023-02-15T01:06:31;83.10;;;37.80;;
57241;SDS011;43095;53.302;5.786;2023-02-15T01:09:00;85.18;;;36.53;;
57241;SDS011;43095;53.302;5.786;2023-02-15T01:11:28;104.07;;;42.90;;
57241;SDS011;43095;53.302;5.786;2023-02-15T01:13:57;316.73;;;60.08;;
57241;SDS011;43095;53.302;5.786;2023-02-15T01:16:27;59.30;;;34.05;;
57241;SDS011;43095;53.302;5.786;2023-02-15T01:18:55;250.88;;;55.08;;
57241;SDS011;43095;53.302;5.786;2023-02-15T01:21:23;45.38;;;34.13;;
57241;SDS011;43095;53.302;5.786;2023-02-15T01:23:51;51.33;;;32.10;;
57241;SDS011;43095;53.302;5.786;2023-02-15T01:26:23;186.85;;;47.90;;
57241;SDS011;43095;53.302;5.786;2023-02-15T01:28:51;45.38;;;28.90;;
57241;SDS011;43095;53.302;5.786;2023-02-15T01:31:19;59.72;;;34.67;;
57241;SDS011;43095;53.302;5.786;2023-02-15T01:33:47;43.33;;;30.90;;
57241;SDS011;43095;53.302;5.786;2023-02-15T01:36:15;69.88;;;34.03;;
57241;SDS011;43095;53.302;5.786;2023-02-15T01:38:46;60.17;;;33.63;;
57241;SDS011;43095;53.302;5.786;2023-02-15T01:41:17;46.95;;;32.67;;
57241;SDS011;43095;53.302;5.786;2023-02-15T01:43:53;56.33;;;33.72;;
57241;SDS011;43095;53.302;5.786;2023-02-15T01:46:23;56.78;;;33.13;;
57241;SDS011;43095;53.302;5.786;2023-02-15T01:48:54;49.42;;;34.08;;
57241;SDS011;43095;53.302;5.786;2023-02-15T01:51:23;49.50;;;33.83;;
57241;SDS011;43095;53.302;5.786;2023-02-15T01:54:16;73.28;;;37.92;;
57241;SDS011;43095;53.302;5.786;2023-02-15T01:56:40;38.65;;;29.90;;
57241;SDS011;43095;53.302;5.786;2023-02-15T01:59:09;64.60;;;35.13;;
57241;SDS011;43095;53.302;5.786;2023-02-15T02:01:43;135.05;;;42.67;;
57241;SDS011;43095;53.302;5.786;2023-02-15T02:07:01;46.28;;;30.63;;
57241;SDS011;43095;53.302;5.786;2023-02-15T02:09:31;224.43;;;51.88;;
57241;SDS011;43095;53.302;5.786;2023-02-15T02:11:59;68.68;;;31.67;;
57241;SDS011;43095;53.302;5.786;2023-02-15T02:14:27;36.75;;;28.90;;
57241;SDS011;43095;53.302;5.786;2023-02-15T02:17:12;57.08;;;33.05;;
57241;SDS011;43095;53.302;5.786;2023-02-15T02:27:33;50.92;;;30.88;;
57241;SDS011;43095;53.302;5.786;2023-02-15T02:38:21;52.50;;;34.00;;
57241;SDS011;43095;53.302;5.786;2023-02-15T02:43:28;73.10;;;33.05;;
57241;SDS011;43095;53.302;5.786;2023-02-15T02:48:32;214.85;;;51.03;;
57241;SDS011;43095;53.302;5.786;2023-02-15T02:51:00;129.05;;;39.83;;
57241;SDS011;43095;53.302;5.786;2023-02-15T02:53:30;46.63;;;29.67;;
57241;SDS011;43095;53.302;5.786;2023-02-15T02:56:09;48.70;;;28.88;;
57241;SDS011;43095;53.302;5.786;2023-02-15T03:01:23;93.10;;;33.90;;
57241;SDS011;43095;53.302;5.786;2023-02-15T03:03:57;49.85;;;30.65;;
57241;SDS011;43095;53.302;5.786;2023-02-15T03:06:31;40.08;;;29.58;;
57241;SDS011;43095;53.302;5.786;2023-02-15T03:09:05;37.80;;;30.05;;
57241;SDS011;43095;53.302;5.786;2023-02-15T03:11:42;32.85;;;27.63;;
57241;SDS011;43095;53.302;5.786;2023-02-15T03:14:10;40.22;;;29.77;;
57241;SDS011;43095;53.302;5.786;2023-02-15T03:16:40;49.22;;;31.25;;
57241;SDS011;43095;53.302;5.786;2023-02-15T03:19:15;43.05;;;29.63;;
57241;SDS011;43095;53.302;5.786;2023-02-15T03:21:47;36.30;;;29.50;;
57241;SDS011;43095;53.302;5.786;2023-02-15T03:24:28;39.17;;;29.58;;
57241;SDS011;43095;53.302;5.786;2023-02-15T03:26:59;38.20;;;29.25;;
57241;SDS011;43095;53.302;5.786;2023-02-15T03:29:29;30.80;;;25.60;;
57241;SDS011;43095;53.302;5.786;2023-02-15T03:32:02;40.33;;;30.20;;
57241;SDS011;43095;53.302;5.786;2023-02-15T03:34:30;33.03;;;26.02;;
57241;SDS011;43095;53.302;5.786;2023-02-15T03:37:00;35.88;;;28.05;;
57241;SDS011;43095;53.302;5.786;2023-02-15T03:42:26;36.60;;;28.30;;
57241;SDS011;43095;53.302;5.786;2023-02-15T03:47:27;37.60;;;28.90;;
57241;SDS011;43095;53.302;5.786;2023-02-15T03:52:25;41.53;;;30.33;;
57241;SDS011;43095;53.302;5.786;2023-02-15T03:54:53;41.38;;;28.30;;
57241;SDS011;43095;53.302;5.786;2023-02-15T04:00:12;48.03;;;28.60;;
57241;SDS011;43095;53.302;5.786;2023-02-15T04:05:35;73.60;;;32.95;;
57241;SDS011;43095;53.302;5.786;2023-02-15T04:08:12;38.85;;;29.17;;
57241;SDS011;43095;53.302;5.786;2023-02-15T04:10:39;36.70;;;26.55;;
57241;SDS011;43095;53.302;5.786;2023-02-15T04:13:21;37.88;;;26.95;;
57241;SDS011;43095;53.302;5.786;2023-02-15T04:15:50;32.03;;;24.50;;
57241;SDS011;43095;53.302;5.786;2023-02-15T04:18:33;34.72;;;27.83;;
57241;SDS011;43095;53.302;5.786;2023-02-15T04:21:21;37.85;;;26.63;;
57241;SDS011;43095;53.302;5.786;2023-02-15T04:24:08;126.85;;;37.10;;
57241;SDS011;43095;53.302;5.786;2023-02-15T04:26:54;131.30;;;36.17;;
57241;SDS011;43095;53.302;5.786;2023-02-15T04:29:22;45.92;;;28.60;;
57241;SDS011;43095;53.302;5.786;2023-02-15T04:31:52;156.70;;;40.50;;
57241;SDS011;43095;53.302;5.786;2023-02-15T04:34:20;71.35;;;32.55;;
57241;SDS011;43095;53.302;5.786;2023-02-15T04:36:47;101.15;;;34.45;;
57241;SDS011;43095;53.302;5.786;2023-02-15T04:39:17;65.35;;;32.03;;
57241;SDS011;43095;53.302;5.786;2023-02-15T04:41:45;153.00;;;41.78;;
57241;SDS011;43095;53.302;5.786;2023-02-15T04:44:12;176.00;;;44.88;;
57241;SDS011;43095;53.302;5.786;2023-02-15T04:46:40;49.17;;;29.02;;
57241;SDS011;43095;53.302;5.786;2023-02-15T04:49:07;54.70;;;31.45;;
57241;SDS011;43095;53.302;5.786;2023-02-15T04:51:35;79.03;;;35.05;;
57241;SDS011;43095;53.302;5.786;2023-02-15T04:54:05;46.80;;;30.13;;
57241;SDS011;43095;53.302;5.786;2023-02-15T04:56:32;42.10;;;27.85;;
57241;SDS011;43095;53.302;5.786;2023-02-15T04:59:01;48.08;;;27.02;;
57241;SDS011;43095;53.302;5.786;2023-02-15T05:01:30;111.15;;;37.88;;
57241;SDS011;43095;53.302;5.786;2023-02-15T05:03:57;34.38;;;26.63;;
57241;SDS011;43095;53.302;5.786;2023-02-15T05:06:26;37.60;;;26.77;;
57241;SDS011;43095;53.302;5.786;2023-02-15T05:08:57;42.40;;;28.42;;
57241;SDS011;43095;53.302;5.786;2023-02-15T05:11:27;53.75;;;29.52;;
57241;SDS011;43095;53.302;5.786;2023-02-15T05:13:55;36.38;;;27.67;;
57241;SDS011;43095;53.302;5.786;2023-02-15T05:16:24;102.13;;;35.75;;
57241;SDS011;43095;53.302;5.786;2023-02-15T05:18:54;188.23;;;46.15;;
57241;SDS011;43095;53.302;5.786;2023-02-15T05:21:21;43.70;;;29.33;;
57241;SDS011;43095;53.302;5.786;2023-02-15T05:23:50;78.13;;;33.67;;
57241;SDS011;43095;53.302;5.786;2023-02-15T05:26:21;102.05;;;36.90;;
57241;SDS011;43095;53.302;5.786;2023-02-15T05:29:08;51.78;;;30.52;;
57241;SDS011;43095;53.302;5.786;2023-02-15T05:31:35;47.00;;;28.73;;
57241;SDS011;43095;53.302;5.786;2023-02-15T05:34:03;52.53;;;30.98;;
57241;SDS011;43095;53.302;5.786;2023-02-15T05:36:32;46.28;;;30.05;;
57241;SDS011;43095;53.302;5.786;2023-02-15T05:39:00;48.20;;;30.75;;
57241;SDS011;43095;53.302;5.786;2023-02-15T05:41:27;113.28;;;38.35;;
57241;SDS011;43095;53.302;5.786;2023-02-15T05:43:55;59.88;;;29.65;;
57241;SDS011;43095;53.302;5.786;2023-02-15T05:46:24;48.42;;;29.77;;
57241;SDS011;43095;53.302;5.786;2023-02-15T05:48:52;38.10;;;27.48;;
57241;SDS011;43095;53.302;5.786;2023-02-15T05:51:22;45.90;;;30.33;;
57241;SDS011;43095;53.302;5.786;2023-02-15T05:53:49;57.58;;;30.58;;
57241;SDS011;43095;53.302;5.786;2023-02-15T05:56:17;72.78;;;33.20;;
57241;SDS011;43095;53.302;5.786;2023-02-15T05:58:46;85.32;;;33.58;;
57241;SDS011;43095;53.302;5.786;2023-02-15T06:01:15;101.55;;;34.85;;
57241;SDS011;43095;53.302;5.786;2023-02-15T06:03:43;96.47;;;33.70;;
57241;SDS011;43095;53.302;5.786;2023-02-15T06:06:12;59.17;;;30.55;;
57241;SDS011;43095;53.302;5.786;2023-02-15T06:08:42;80.55;;;32.30;;
57241;SDS011;43095;53.302;5.786;2023-02-15T06:11:09;53.25;;;28.98;;
57241;SDS011;43095;53.302;5.786;2023-02-15T06:13:37;156.15;;;40.90;;
57241;SDS011;43095;53.302;5.786;2023-02-15T06:16:05;78.35;;;33.85;;
57241;SDS011;43095;53.302;5.786;2023-02-15T06:18:33;316.63;;;61.97;;
57241;SDS011;43095;53.302;5.786;2023-02-15T06:21:08;76.28;;;34.78;;
57241;SDS011;43095;53.302;5.786;2023-02-15T06:23:36;67.80;;;32.00;;
57241;SDS011;43095;53.302;5.786;2023-02-15T06:26:04;156.93;;;42.50;;
57241;SDS011;43095;53.302;5.786;2023-02-15T06:28:33;192.05;;;45.72;;
57241;SDS011;43095;53.302;5.786;2023-02-15T06:31:01;130.50;;;40.50;;
57241;SDS011;43095;53.302;5.786;2023-02-15T06:33:32;133.52;;;42.67;;
57241;SDS011;43095;53.302;5.786;2023-02-15T06:36:02;55.22;;;33.28;;
57241;SDS011;43095;53.302;5.786;2023-02-15T06:38:30;206.98;;;49.88;;
57241;SDS011;43095;53.302;5.786;2023-02-15T06:41:01;55.13;;;36.30;;
57241;SDS011;43095;53.302;5.786;2023-02-15T06:43:29;52.33;;;33.42;;
57241;SDS011;43095;53.302;5.786;2023-02-15T06:45:59;62.47;;;36.80;;
57241;SDS011;43095;53.302;5.786;2023-02-15T06:48:27;65.57;;;35.67;;
57241;SDS011;43095;53.302;5.786;2023-02-15T06:50:55;62.70;;;34.30;;
57241;SDS011;43095;53.302;5.786;2023-02-15T06:53:25;127.63;;;43.90;;
57241;SDS011;43095;53.302;5.786;2023-02-15T06:55:52;145.32;;;43.75;;
57241;SDS011;43095;53.302;5.786;2023-02-15T06:58:22;58.45;;;36.80;;
57241;SDS011;43095;53.302;5.786;2023-02-15T07:00:51;135.65;;;48.38;;
57241;SDS011;43095;53.302;5.786;2023-02-15T07:03:18;87.03;;;42.22;;
57241;SDS011;43095;53.302;5.786;2023-02-15T07:05:46;87.40;;;42.80;;
57241;SDS011;43095;53.302;5.786;2023-02-15T07:08:15;80.10;;;43.00;;
57241;SDS011;43095;53.302;5.786;2023-02-15T07:10:45;76.07;;;39.42;;
57241;SDS011;43095;53.302;5.786;2023-02-15T07:13:13;73.85;;;39.03;;
57241;SDS011;43095;53.302;5.786;2023-02-15T07:15:40;179.48;;;52.97;;
57241;SDS011;43095;53.302;5.786;2023-02-15T07:18:08;172.50;;;52.35;;
57241;SDS011;43095;53.302;5.786;2023-02-15T07:20:37;78.22;;;42.17;;
57241;SDS011;43095;53.302;5.786;2023-02-15T07:23:05;71.07;;;41.20;;
57241;SDS011;43095;53.302;5.786;2023-02-15T07:25:32;78.60;;;42.45;;
57241;SDS011;43095;53.302;5.786;2023-02-15T07:28:03;83.00;;;42.28;;
57241;SDS011;43095;53.302;5.786;2023-02-15T07:30:33;68.30;;;39.17;;
57241;SDS011;43095;53.302;5.786;2023-02-15T07:33:04;91.95;;;41.75;;
57241;SDS011;43095;53.302;5.786;2023-02-15T07:35:50;83.88;;;44.78;;
57241;SDS011;43095;53.302;5.786;2023-02-15T07:38:18;74.25;;;42.65;;
57241;SDS011;43095;53.302;5.786;2023-02-15T07:40:45;88.20;;;44.25;;
57241;SDS011;43095;53.302;5.786;2023-02-15T07:43:13;92.05;;;44.83;;
57241;SDS011;43095;53.302;5.786;2023-02-15T07:45:41;82.53;;;44.70;;
57241;SDS011;43095;53.302;5.786;2023-02-15T07:48:08;84.10;;;43.08;;
57241;SDS011;43095;53.302;5.786;2023-02-15T07:50:36;90.63;;;45.83;;
57241;SDS011;43095;53.302;5.786;2023-02-15T07:53:03;83.40;;;44.17;;
57241;SDS011;43095;53.302;5.786;2023-02-15T07:55:32;84.15;;;44.83;;
57241;SDS011;43095;53.302;5.786;2023-02-15T07:58:00;87.72;;;47.55;;
57241;SDS011;43095;53.302;5.786;2023-02-15T08:00:27;101.72;;;51.28;;
57241;SDS011;43095;53.302;5.786;2023-02-15T08:02:56;91.60;;;47.53;;
57241;SDS011;43095;53.302;5.786;2023-02-15T08:05:43;86.57;;;45.60;;
57241;SDS011;43095;53.302;5.786;2023-02-15T08:08:11;137.10;;;56.92;;
57241;SDS011;43095;53.302;5.786;2023-02-15T08:11:05;119.13;;;54.10;;
57241;SDS011;43095;53.302;5.786;2023-02-15T08:13:58;109.15;;;52.53;;
57241;SDS011;43095;53.302;5.786;2023-02-15T08:18:54;122.47;;;58.45;;
57241;SDS011;43095;53.302;5.786;2023-02-15T08:21:21;146.88;;;63.65;;
57241;SDS011;43095;53.302;5.786;2023-02-15T08:23:50;135.85;;;63.63;;
57241;SDS011;43095;53.302;5.786;2023-02-15T08:26:18;130.98;;;58.75;;
57241;SDS011;43095;53.302;5.786;2023-02-15T08:28:46;150.35;;;66.47;;
57241;SDS011;43095;53.302;5.786;2023-02-15T08:31:19;138.85;;;63.53;;
57241;SDS011;43095;53.302;5.786;2023-02-15T08:33:48;124.32;;;59.30;;
57241;SDS011;43095;53.302;5.786;2023-02-15T08:36:21;134.50;;;62.42;;
57241;SDS011;43095;53.302;5.786;2023-02-15T08:38:49;146.30;;;64.30;;
57241;SDS011;43095;53.302;5.786;2023-02-15T08:41:18;152.48;;;65.93;;
57241;SDS011;43095;53.302;5.786;2023-02-15T08:43:47;148.60;;;66.25;;
57241;SDS011;43095;53.302;5.786;2023-02-15T08:46:15;150.70;;;67.50;;
57241;SDS011;43095;53.302;5.786;2023-02-15T08:48:45;143.02;;;67.10;;
57241;SDS011;43095;53.302;5.786;2023-02-15T08:51:14;157.63;;;68.03;;
57241;SDS011;43095;53.302;5.786;2023-02-15T08:53:47;142.73;;;65.10;;
57241;SDS011;43095;53.302;5.786;2023-02-15T08:56:20;151.23;;;66.40;;
57241;SDS011;43095;53.302;5.786;2023-02-15T08:58:47;134.70;;;62.00;;
57241;SDS011;43095;53.302;5.786;2023-02-15T09:01:19;161.45;;;71.13;;
57241;SDS011;43095;53.302;5.786;2023-02-15T09:03:55;136.80;;;63.50;;
57241;SDS011;43095;53.302;5.786;2023-02-15T09:06:22;143.27;;;66.80;;
57241;SDS011;43095;53.302;5.786;2023-02-15T09:08:50;153.88;;;69.47;;
57241;SDS011;43095;53.302;5.786;2023-02-15T09:11:18;142.68;;;67.05;;
57241;SDS011;43095;53.302;5.786;2023-02-15T09:13:57;156.35;;;71.05;;
57241;SDS011;43095;53.302;5.786;2023-02-15T09:16:26;156.70;;;72.22;;
57241;SDS011;43095;53.302;5.786;2023-02-15T09:18:54;153.15;;;69.70;;
57241;SDS011;43095;53.302;5.786;2023-02-15T09:21:24;151.05;;;69.85;;
57241;SDS011;43095;53.302;5.786;2023-02-15T09:23:57;162.32;;;72.10;;
57241;SDS011;43095;53.302;5.786;2023-02-15T09:26:31;145.88;;;70.07;;
57241;SDS011;43095;53.302;5.786;2023-02-15T09:29:02;139.23;;;68.50;;
57241;SDS011;43095;53.302;5.786;2023-02-15T09:31:36;140.68;;;67.70;;
57241;SDS011;43095;53.302;5.786;2023-02-15T09:34:04;133.85;;;67.70;;
57241;SDS011;43095;53.302;5.786;2023-02-15T09:36:34;138.18;;;67.60;;
57241;SDS011;43095;53.302;5.786;2023-02-15T09:39:07;155.85;;;73.25;;
57241;SDS011;43095;53.302;5.786;2023-02-15T09:49:59;133.00;;;65.97;;
57241;SDS011;43095;53.302;5.786;2023-02-15T10:03:20;130.55;;;65.68;;
57241;SDS011;43095;53.302;5.786;2023-02-15T10:11:22;123.90;;;62.13;;
57241;SDS011;43095;53.302;5.786;2023-02-15T10:27:18;101.20;;;51.20;;
57241;SDS011;43095;53.302;5.786;2023-02-15T10:30:09;92.13;;;48.58;;
57241;SDS011;43095;53.302;5.786;2023-02-15T10:32:38;96.65;;;50.83;;
57241;SDS011;43095;53.302;5.786;2023-02-15T10:35:15;89.43;;;50.70;;
57241;SDS011;43095;53.302;5.786;2023-02-15T10:40:25;82.88;;;45.47;;
57241;SDS011;43095;53.302;5.786;2023-02-15T10:43:06;76.03;;;43.38;;
57241;SDS011;43095;53.302;5.786;2023-02-15T10:45:46;84.95;;;44.30;;
57241;SDS011;43095;53.302;5.786;2023-02-15T10:50:57;71.10;;;41.70;;
57241;SDS011;43095;53.302;5.786;2023-02-15T11:01:11;73.10;;;39.22;;
57241;SDS011;43095;53.302;5.786;2023-02-15T11:06:17;72.75;;;41.00;;
57241;SDS011;43095;53.302;5.786;2023-02-15T11:11:24;68.13;;;38.90;;
57241;SDS011;43095;53.302;5.786;2023-02-15T11:13:54;69.47;;;37.67;;
57241;SDS011;43095;53.302;5.786;2023-02-15T11:16:28;63.08;;;35.90;;
57241;SDS011;43095;53.302;5.786;2023-02-15T11:18:58;66.13;;;36.22;;
57241;SDS011;43095;53.302;5.786;2023-02-15T11:21:30;67.40;;;36.50;;
57241;SDS011;43095;53.302;5.786;2023-02-15T11:24:09;62.40;;;34.28;;
57241;SDS011;43095;53.302;5.786;2023-02-15T11:26:42;62.17;;;34.75;;
57241;SDS011;43095;53.302;5.786;2023-02-15T11:34:49;63.92;;;35.15;;
57241;SDS011;43095;53.302;5.786;2023-02-15T11:37:19;61.08;;;34.47;;
57241;SDS011;43095;53.302;5.786;2023-02-15T11:39:50;62.65;;;35.28;;
57241;SDS011;43095;53.302;5.786;2023-02-15T11:42:20;59.20;;;32.83;;
57241;SDS011;43095;53.302;5.786;2023-02-15T11:45:25;60.85;;;35.65;;
57241;SDS011;43095;53.302;5.786;2023-02-15T11:47:43;58.05;;;34.60;;
57241;SDS011;43095;53.302;5.786;2023-02-15T11:50:14;59.72;;;34.95;;
57241;SDS011;43095;53.302;5.786;2023-02-15T11:52:43;69.72;;;36.53;;
57241;SDS011;43095;53.302;5.786;2023-02-15T11:55:12;60.90;;;34.08;;
57241;SDS011;43095;53.302;5.786;2023-02-15T11:57:42;58.65;;;33.28;;
57241;SDS011;43095;53.302;5.786;2023-02-15T12:00:26;58.85;;;34.20;;
57241;SDS011;43095;53.302;5.786;2023-02-15T12:02:58;64.82;;;37.05;;
57241;SDS011;43095;53.302;5.786;2023-02-15T12:05:25;56.47;;;33.25;;
57241;SDS011;43095;53.302;5.786;2023-02-15T12:08:37;61.08;;;34.78;;
57241;SDS011;43095;53.302;5.786;2023-02-15T12:10:57;62.63;;;35.47;;
57241;SDS011;43095;53.302;5.786;2023-02-15T12:13:26;57.40;;;34.10;;
57241;SDS011;43095;53.302;5.786;2023-02-15T12:15:54;57.78;;;34.10;;
57241;SDS011;43095;53.302;5.786;2023-02-15T12:18:36;52.47;;;32.70;;
57241;SDS011;43095;53.302;5.786;2023-02-15T12:21:15;59.17;;;35.28;;
57241;SDS011;43095;53.302;5.786;2023-02-15T12:23:46;63.63;;;35.95;;
57241;SDS011;43095;53.302;5.786;2023-02-15T12:26:15;57.42;;;36.65;;
57241;SDS011;43095;53.302;5.786;2023-02-15T12:28:50;58.42;;;34.28;;
57241;SDS011;43095;53.302;5.786;2023-02-15T12:31:20;60.42;;;36.25;;
57241;SDS011;43095;53.302;5.786;2023-02-15T12:33:48;61.13;;;36.08;;
57241;SDS011;43095;53.302;5.786;2023-02-15T12:36:21;59.38;;;35.13;;
57241;SDS011;43095;53.302;5.786;2023-02-15T12:41:29;55.63;;;33.33;;
57241;SDS011;43095;53.302;5.786;2023-02-15T12:44:04;54.47;;;32.78;;
57241;SDS011;43095;53.302;5.786;2023-02-15T12:46:32;58.08;;;33.97;;
57241;SDS011;43095;53.302;5.786;2023-02-15T12:49:25;59.28;;;34.15;;
57241;SDS011;43095;53.302;5.786;2023-02-15T12:52:02;58.42;;;34.03;;
57241;SDS011;43095;53.302;5.786;2023-02-15T12:56:58;51.45;;;31.65;;
57241;SDS011;43095;53.302;5.786;2023-02-15T12:59:26;52.70;;;32.67;;
57241;SDS011;43095;53.302;5.786;2023-02-15T13:01:53;55.63;;;34.35;;
57241;SDS011;43095;53.302;5.786;2023-02-15T13:04:23;57.47;;;33.60;;
57241;SDS011;43095;53.302;5.786;2023-02-15T13:06:53;57.65;;;34.83;;
57241;SDS011;43095;53.302;5.786;2023-02-15T13:09:26;53.63;;;32.85;;
57241;SDS011;43095;53.302;5.786;2023-02-15T13:14:42;50.10;;;33.42;;
57241;SDS011;43095;53.302;5.786;2023-02-15T13:17:10;59.20;;;36.80;;
57241;SDS011;43095;53.302;5.786;2023-02-15T13:19:49;57.63;;;35.08;;
57241;SDS011;43095;53.302;5.786;2023-02-15T13:22:19;56.35;;;34.03;;
57241;SDS011;43095;53.302;5.786;2023-02-15T13:24:53;54.00;;;34.47;;
57241;SDS011;43095;53.302;5.786;2023-02-15T13:27:22;57.30;;;34.97;;
57241;SDS011;43095;53.302;5.786;2023-02-15T13:29:51;58.70;;;35.75;;
57241;SDS011;43095;53.302;5.786;2023-02-15T13:35:20;58.15;;;33.85;;
57241;SDS011;43095;53.302;5.786;2023-02-15T13:37:51;60.85;;;35.22;;
57241;SDS011;43095;53.302;5.786;2023-02-15T13:40:25;63.75;;;36.13;;
57241;SDS011;43095;53.302;5.786;2023-02-15T13:42:59;58.58;;;34.95;;
57241;SDS011;43095;53.302;5.786;2023-02-15T13:45:33;61.08;;;35.47;;
57241;SDS011;43095;53.302;5.786;2023-02-15T13:50:42;59.65;;;35.22;;
57241;SDS011;43095;53.302;5.786;2023-02-15T13:55:56;63.65;;;37.30;;
57241;SDS011;43095;53.302;5.786;2023-02-15T13:58:39;71.28;;;37.92;;
57241;SDS011;43095;53.302;5.786;2023-02-15T14:14:22;62.50;;;35.53;;
57241;SDS011;43095;53.302;5.786;2023-02-15T14:16:57;64.38;;;35.55;;
57241;SDS011;43095;53.302;5.786;2023-02-15T14:19:35;58.38;;;35.58;;
57241;SDS011;43095;53.302;5.786;2023-02-15T14:24:55;59.88;;;34.47;;
57241;SDS011;43095;53.302;5.786;2023-02-15T14:30:16;64.57;;;35.92;;
57241;SDS011;43095;53.302;5.786;2023-02-15T14:32:46;65.17;;;37.57;;
57241;SDS011;43095;53.302;5.786;2023-02-15T14:35:16;63.70;;;36.80;;
57241;SDS011;43095;53.302;5.786;2023-02-15T14:37:49;60.90;;;34.60;;
57241;SDS011;43095;53.302;5.786;2023-02-15T14:45:56;61.35;;;36.25;;
57241;SDS011;43095;53.302;5.786;2023-02-15T14:48:43;58.83;;;33.28;;
57241;SDS011;43095;53.302;5.786;2023-02-15T14:53:58;60.00;;;35.55;;
57241;SDS011;43095;53.302;5.786;2023-02-15T14:56:26;56.13;;;34.80;;
57241;SDS011;43095;53.302;5.786;2023-02-15T14:59:40;60.33;;;36.60;;
57241;SDS011;43095;53.302;5.786;2023-02-15T15:01:51;56.70;;;35.95;;
57241;SDS011;43095;53.302;5.786;2023-02-15T15:07:14;61.38;;;37.35;;
57241;SDS011;43095;53.302;5.786;2023-02-15T15:12:53;62.15;;;36.35;;
57241;SDS011;43095;53.302;5.786;2023-02-15T15:18:08;59.90;;;36.72;;
57241;SDS011;43095;53.302;5.786;2023-02-15T15:20:49;62.00;;;37.75;;
57241;SDS011;43095;53.302;5.786;2023-02-15T15:25:48;62.78;;;37.95;;
57241;SDS011;43095;53.302;5.786;2023-02-15T15:49:59;68.07;;;40.65;;
57241;SDS011;43095;53.302;5.786;2023-02-15T15:52:27;67.55;;;40.67;;
57241;SDS011;43095;53.302;5.786;2023-02-15T15:55:05;63.35;;;40.17;;
57241;SDS011;43095;53.302;5.786;2023-02-15T15:57:43;63.67;;;40.72;;
57241;SDS011;43095;53.302;5.786;2023-02-15T16:02:51;69.50;;;41.72;;
57241;SDS011;43095;53.302;5.786;2023-02-15T16:05:19;65.70;;;39.17;;
57241;SDS011;43095;53.302;5.786;2023-02-15T16:07:47;70.45;;;40.22;;
57241;SDS011;43095;53.302;5.786;2023-02-15T16:10:23;72.50;;;42.33;;
57241;SDS011;43095;53.302;5.786;2023-02-15T16:12:51;78.28;;;41.75;;
57241;SDS011;43095;53.302;5.786;2023-02-15T16:15:34;73.18;;;40.78;;
57241;SDS011;43095;53.302;5.786;2023-02-15T16:18:03;65.32;;;41.03;;
57241;SDS011;43095;53.302;5.786;2023-02-15T16:20:31;67.50;;;41.42;;
57241;SDS011;43095;53.302;5.786;2023-02-15T16:26:01;79.85;;;47.17;;
57241;SDS011;43095;53.302;5.786;2023-02-15T16:28:32;76.75;;;48.40;;
57241;SDS011;43095;53.302;5.786;2023-02-15T16:31:21;72.95;;;44.78;;
57241;SDS011;43095;53.302;5.786;2023-02-15T16:34:00;67.53;;;41.45;;
57241;SDS011;43095;53.302;5.786;2023-02-15T16:36:36;68.70;;;40.20;;
57241;SDS011;43095;53.302;5.786;2023-02-15T16:39:09;71.95;;;43.08;;
57241;SDS011;43095;53.302;5.786;2023-02-15T16:41:39;66.22;;;40.55;;
57241;SDS011;43095;53.302;5.786;2023-02-15T16:44:12;71.75;;;41.53;;
57241;SDS011;43095;53.302;5.786;2023-02-15T16:46:43;67.03;;;40.45;;
57241;SDS011;43095;53.302;5.786;2023-02-15T16:49:16;76.65;;;42.63;;
57241;SDS011;43095;53.302;5.786;2023-02-15T16:51:44;69.97;;;42.80;;
57241;SDS011;43095;53.302;5.786;2023-02-15T16:54:16;80.07;;;45.80;;
57241;SDS011;43095;53.302;5.786;2023-02-15T16:56:45;72.00;;;43.03;;
57241;SDS011;43095;53.302;5.786;2023-02-15T16:59:19;73.47;;;42.03;;
57241;SDS011;43095;53.302;5.786;2023-02-15T17:01:47;73.13;;;41.40;;
57241;SDS011;43095;53.302;5.786;2023-02-15T17:07:05;74.68;;;46.70;;
57241;SDS011;43095;53.302;5.786;2023-02-15T17:09:33;80.80;;;46.13;;
57241;SDS011;43095;53.302;5.786;2023-02-15T17:12:00;73.55;;;44.88;;
57241;SDS011;43095;53.302;5.786;2023-02-15T17:14:31;74.05;;;45.78;;
57241;SDS011;43095;53.302;5.786;2023-02-15T17:17:05;74.57;;;45.60;;
57241;SDS011;43095;53.302;5.786;2023-02-15T17:19:40;78.03;;;48.03;;
57241;SDS011;43095;53.302;5.786;2023-02-15T17:22:16;80.43;;;46.88;;
57241;SDS011;43095;53.302;5.786;2023-02-15T17:24:44;78.88;;;49.33;;
57241;SDS011;43095;53.302;5.786;2023-02-15T17:27:16;74.78;;;46.53;;
57241;SDS011;43095;53.302;5.786;2023-02-15T17:29:51;79.05;;;47.97;;
57241;SDS011;43095;53.302;5.786;2023-02-15T17:32:23;82.53;;;48.55;;
57241;SDS011;43095;53.302;5.786;2023-02-15T17:38:01;86.18;;;50.80;;
57241;SDS011;43095;53.302;5.786;2023-02-15T17:40:34;80.75;;;48.22;;
57241;SDS011;43095;53.302;5.786;2023-02-15T17:43:02;91.45;;;53.35;;
57241;SDS011;43095;53.302;5.786;2023-02-15T17:45:51;79.30;;;50.33;;
57241;SDS011;43095;53.302;5.786;2023-02-15T17:48:22;84.00;;;51.10;;
57241;SDS011;43095;53.302;5.786;2023-02-15T17:50:50;89.55;;;52.85;;
57241;SDS011;43095;53.302;5.786;2023-02-15T17:53:18;91.35;;;53.58;;
57241;SDS011;43095;53.302;5.786;2023-02-15T17:55:45;90.00;;;55.70;;